Search for airport 
image banner adimage banner adimage banner ad
image banner ad

CN16 - Mercy Hospital Of Folsom

Located in Folsom, United States

ICAO - CN16, IATA -

Data provided by Airmate  

General information

Coordinates: N38°40'15" W121°8'34"
Elevation is 335 feet MSL.
 
View others Airports in California

Operational data

Special qualification required
Current time UTC:
Current local time:
Weather at : KMHR - Sacramento Mather ( 19 km )
TAF: KMHR 140536Z 1406/1506 19011KT P6SM SCT250 FM141000 15008KT P6SM SCT250 TEMPO 1412/1416 BKN010 FM142000 23011KT P6SM SCT250 FM150200 22015G20KT P6SM SCT250 AMD NOT SKED
View NOTAMs / SUP AIP / TFR affecting this airport [VIEW]
Communications frequencies: [VIEW]

Runways:

Airport contact information

Address: Folsom United States

Satellite view of CN16